Gunnison Bend Reservoir




Date Hourly Average Reservoir Capacity (AF) Canal Flow (cfs) Battery Voltage (V) Reservoir Height (ft) Gate Height 1 (ft) Gate Height 2 (ft)
05/01/2018 2,491 149.50 13.47 9.48 2.60 2.45
05/02/2018 2,358 155.60 13.40 9.24 3.40 3.39
05/03/2018 2,309 156.10 13.39 9.15 3.38 3.32
05/04/2018 2,386 124.10 13.31 9.29 1.64 1.89
05/05/2018 2,563 99.60 13.35 9.61 1.10 1.09
05/06/2018 2,657 93.40 13.31 9.78 1.11 1.02
05/07/2018 2,623 96.50 13.32 9.72 1.14 1.15
05/08/2018 2,601 96.30 13.29 9.68 1.14 1.15
05/09/2018 2,568 96.40 13.31 9.62 1.14 1.18
05/10/2018 2,552 99.00 13.25 9.59 1.14 1.29
05/11/2018 2,524 100.60 13.33 9.54 1.14 1.32
05/12/2018 2,546 100.80 13.12 9.58 1.13 1.33
05/13/2018 2,679 90.50 13.25 9.82 1.10 0.94
05/14/2018 2,772 70.34 13.40 9.99 0.81 0.70
05/15/2018 2,845 54.86 13.43 10.11 0.49 0.70
05/16/2018 2,943 44.48 13.39 10.27 0.30 0.70
05/17/2018 3,004 33.56 13.35 10.37 0.16 0.64
05/18/2018 3,004 37.77 13.36 10.37 0.16 0.74
05/19/2018 2,949 46.21 13.39 10.28 0.16 0.89
05/20/2018 2,851 57.79 13.36 10.12 0.16 1.15
05/21/2018 2,882 58.94 13.38 10.17 0.16 1.15
05/22/2018 2,931 59.49 13.37 10.25 0.16 1.15
05/23/2018 2,918 70.36 13.41 10.23 0.16 1.35
05/24/2018 2,918 58.45 13.37 10.23 0.16 1.11
05/25/2018 2,967 48.53 13.34 10.31 0.16 0.92
05/26/2018 2,943 57.07 13.36 10.27 0.16 1.11
05/27/2018 2,955 58.88 13.36 10.29 0.16 1.14
05/28/2018 2,955 59.19 13.37 10.29 0.16 1.13
05/29/2018 2,992 37.40 13.44 10.35 0.17 0.67
05/30/2018 3,016 33.09 13.37 10.39 0.17 0.59
05/31/2018 3,016 34.17 13.36 10.39 0.17 0.63
Average 76.74
Maximum 156.10
Minimum 33.09
Total Volume (AF) 4,717.52